Terminal Aerodrome Forecast
Issued by NWS

Home | Current Version | Previous Version | Text Only | Print | Product List | Glossary On
Versions: 1 2 3 4 5 6 7 8 9 10 11 12 13 14 15 16
000
FTUS43 KGRR 211751 AAA
TAFMKG
TAF AMD
KMKG 211751Z 2118/2218 20006KT P6SM BKN014 OVC240
     FM212000 21009KT P6SM SCT015 BKN035
     FM220400 19009KT P6SM VCTS BKN060CB BKN120 WS020/22035KT
     FM220600 18010KT 3SM TSRA BR SCT025 OVC040CB WS020/23040KT
     FM220700 15011KT 5SM -TSRA BR VCTS OVC035CB
     FM220800 25012KT 4SM -SHRA OVC035
     FM221200 26014G25KT P6SM OVC015
     FM221700 31018G28KT P6SM BKN050=

USA.gov is the U.S. government's official web portal to all federal, state and local government web resources and services.